Time;durP1;ratioP1;P1;durP2;ratioP2;P2;SDS_P1;SDS_P2;PMS_P1;PMS_P2;Temp;Humidity;BMP_temperature;BMP_pressure;BME280_temperature;BME280_humidity;BME280_pressure;Samples;Min_cycle;Max_cycle;Signal;HPM_P1;HPM_P2
2022/11/23 00:02:02;;;;;;;;;;;7.70;96.60;;;;;;5063483;28;19913;-73
2022/11/23 00:04:27;;;;;;;;;;;7.70;96.60;;;;;;5063422;28;19955;-73
2022/11/23 00:06:53;;;;;;;;;;;7.70;96.50;;;;;;5068761;28;19931;-73
2022/11/23 00:09:18;;;;;;;;;;;7.70;96.50;;;;;;5069995;28;19919;-74
2022/11/23 00:11:44;;;;;;;;;;;7.70;96.50;;;;;;5064538;28;20007;-73
2022/11/23 00:14:09;;;;;;;;;;;7.70;96.40;;;;;;5063564;28;19912;-74
2022/11/23 00:16:35;;;;;;;;;;;7.70;96.40;;;;;;5069615;28;19958;-74
2022/11/23 00:19:01;;;;;;;;;;;7.70;96.40;;;;;;5065435;28;19916;-73
2022/11/23 00:21:28;;;;;;;;;;;7.70;96.40;;;;;;5064610;28;19956;-74
2022/11/23 00:23:53;;;;;;;;;;;7.70;96.40;;;;;;5068351;28;19994;-73
2022/11/23 00:26:19;;;;;;;;;;;7.70;96.70;;;;;;5086372;28;19924;-74
2022/11/23 00:28:46;;;;;;;;;;;7.70;96.40;;;;;;5089142;28;20377;-73
2022/11/23 00:31:12;;;;;;;;;;;7.70;96.40;;;;;;5072012;28;20409;-74
2022/11/23 00:33:38;;;;;;;;;;;7.70;96.40;;;;;;5068483;28;20023;-74
2022/11/23 00:36:06;;;;;;;;;;;7.70;96.40;;;;;;5068548;28;20007;-74
2022/11/23 00:38:31;;;;;;;;;;;7.70;96.50;;;;;;5068676;28;19916;-74
2022/11/23 00:40:58;;;;;;;;;;;7.80;96.60;;;;;;5086637;28;19919;-74
2022/11/23 00:43:24;;;;;;;;;;;7.70;96.40;;;;;;5078385;28;19998;-74
2022/11/23 00:45:49;;;;;;;;;;;7.70;96.40;;;;;;5067768;28;20006;-75
2022/11/23 00:48:15;;;;;;;;;;;7.70;96.40;;;;;;5067745;28;19912;-73
2022/11/23 00:50:40;;;;;;;;;;;7.70;96.40;;;;;;5068159;28;19970;-74
2022/11/23 00:53:06;;;;;;;;;;;7.70;96.60;;;;;;5068606;28;20348;-74
2022/11/23 00:55:31;;;;;;;;;;;7.70;96.40;;;;;;5078823;28;19912;-73
2022/11/23 00:57:57;;;;;;;;;;;7.80;96.40;;;;;;5088693;28;19957;-74
2022/11/23 01:00:22;;;;;;;;;;;7.80;96.40;;;;;;5080082;28;19989;-74
2022/11/23 01:02:48;;;;;;;;;;;7.70;96.40;;;;;;5067906;28;19912;-74
2022/11/23 01:05:13;;;;;;;;;;;7.70;96.40;;;;;;5067884;28;19970;-73
2022/11/23 01:07:39;;;;;;;;;;;7.70;96.40;;;;;;5058392;28;19944;-74
2022/11/23 01:10:05;;;;;;;;;;;7.80;96.40;;;;;;5048115;28;19912;-74
2022/11/23 01:12:30;;;;;;;;;;;7.80;96.40;;;;;;5048236;28;19924;-74
2022/11/23 01:14:55;;;;;;;;;;;7.80;96.50;;;;;;5047965;28;19913;-74
2022/11/23 01:17:21;;;;;;;;;;;7.80;96.50;;;;;;5048165;28;19913;-73
2022/11/23 01:19:46;;;;;;;;;;;7.80;96.50;;;;;;5079478;28;19999;-73
2022/11/23 01:22:12;;;;;;;;;;;7.80;96.40;;;;;;5068205;28;19913;-73
2022/11/23 01:24:37;;;;;;;;;;;7.80;96.40;;;;;;5087123;28;20506;-73
2022/11/23 01:27:03;;;;;;;;;;;7.80;96.40;;;;;;5088608;28;19997;-73
2022/11/23 01:29:28;;;;;;;;;;;7.80;96.50;;;;;;5087078;28;20316;-73
2022/11/23 01:31:54;;;;;;;;;;;7.80;96.40;;;;;;5067227;28;19973;-73
2022/11/23 01:34:19;;;;;;;;;;;7.80;96.40;;;;;;5066269;28;20034;-74
2022/11/23 01:36:45;;;;;;;;;;;7.80;96.50;;;;;;5068585;28;19982;-73
2022/11/23 01:39:10;;;;;;;;;;;7.80;96.50;;;;;;5067838;28;19916;-73
2022/11/23 01:41:37;;;;;;;;;;;7.80;96.40;;;;;;5067921;28;20535;-73
2022/11/23 01:44:22;;;;;;;;;;;7.80;96.40;;;;;;5067662;28;19912;-74
2022/11/23 01:46:48;;;;;;;;;;;7.80;96.40;;;;;;5068078;28;19916;-74
2022/11/23 01:49:13;;;;;;;;;;;7.80;96.40;;;;;;5067622;28;19920;-73
2022/11/23 01:51:40;;;;;;;;;;;7.80;96.40;;;;;;5067035;28;19966;-73
2022/11/23 01:54:17;;;;;;;;;;;7.80;96.40;;;;;;5066688;28;19917;-74
2022/11/23 01:56:44;;;;;;;;;;;7.80;96.40;;;;;;5067027;28;20050;-74
2022/11/23 01:59:12;;;;;;;;;;;7.80;96.40;;;;;;5067302;28;20391;-73
2022/11/23 02:01:37;;;;;;;;;;;7.80;96.40;;;;;;5066286;28;19944;-73
2022/11/23 02:04:05;;;;;;;;;;;7.80;96.40;;;;;;5067192;28;20545;-73
2022/11/23 02:06:31;;;;;;;;;;;7.80;96.70;;;;;;5070804;28;19920;-73
2022/11/23 02:08:57;;;;;;;;;;;7.80;96.40;;;;;;5066778;28;19912;-74
2022/11/23 02:11:22;;;;;;;;;;;7.80;96.40;;;;;;5066219;28;19989;-74
2022/11/23 02:13:50;;;;;;;;;;;7.80;96.40;;;;;;5066640;28;20319;-74
2022/11/23 02:16:16;;;;;;;;;;;7.80;96.40;;;;;;5066757;28;19959;-74
2022/11/23 02:18:43;;;;;;;;;;;7.80;96.40;;;;;;5066562;28;19915;-74
2022/11/23 02:21:08;;;;;;;;;;;7.80;96.40;;;;;;5066377;28;20672;-74
2022/11/23 02:23:37;;;;;;;;;;;7.80;96.40;;;;;;5067699;28;19916;-74
2022/11/23 02:26:03;;;;;;;;;;;7.80;96.40;;;;;;5068089;28;20265;-73
2022/11/23 02:28:34;;;;;;;;;;;7.80;96.40;;;;;;5066403;28;19920;-74
2022/11/23 02:31:00;;;;;;;;;;;7.80;96.50;;;;;;5065981;28;19959;-73
2022/11/23 02:33:25;;;;;;;;;;;7.80;96.50;;;;;;5066017;28;19912;-73
2022/11/23 02:35:55;;;;;;;;;;;7.80;96.40;;;;;;5066363;28;19919;-73
2022/11/23 02:38:22;;;;;;;;;;;7.80;96.60;;;;;;5066493;28;19924;-74
2022/11/23 02:40:47;;;;;;;;;;;7.80;96.60;;;;;;5070128;28;19916;-74
2022/11/23 02:43:13;;;;;;;;;;;7.80;96.50;;;;;;5066135;28;19920;-73
2022/11/23 02:46:12;;;;;;;;;;;7.80;96.70;;;;;;5066766;28;19958;-74
2022/11/23 02:48:37;;;;;;;;;;;7.80;96.50;;;;;;5053643;28;20581;-73
2022/11/23 02:51:03;;;;;;;;;;;7.80;96.40;;;;;;5065910;28;19913;-73
2022/11/23 02:53:28;;;;;;;;;;;7.90;96.60;;;;;;5066825;28;20399;-74
2022/11/23 02:55:54;;;;;;;;;;;7.80;96.40;;;;;;5079449;28;19923;-74
2022/11/23 02:58:19;;;;;;;;;;;7.80;96.50;;;;;;5086377;28;19916;-73
2022/11/23 03:00:44;;;;;;;;;;;7.80;96.40;;;;;;5074169;28;19920;-73
2022/11/23 03:03:10;;;;;;;;;;;7.80;96.50;;;;;;5066007;28;19939;-73
2022/11/23 03:05:35;;;;;;;;;;;7.90;96.40;;;;;;5065618;28;20008;-74
2022/11/23 03:08:01;;;;;;;;;;;7.90;96.50;;;;;;5051577;28;19913;-73
2022/11/23 03:10:26;;;;;;;;;;;7.90;96.80;;;;;;5045703;28;20293;-74
2022/11/23 03:12:52;;;;;;;;;;;7.90;96.70;;;;;;5058209;28;20022;-73
2022/11/23 03:15:18;;;;;;;;;;;7.90;96.50;;;;;;5065555;28;19913;-74
2022/11/23 03:17:43;;;;;;;;;;;7.90;96.50;;;;;;5065491;28;20316;-74
2022/11/23 03:20:09;;;;;;;;;;;7.90;96.40;;;;;;5064747;28;19920;-73
2022/11/23 03:22:35;;;;;;;;;;;7.90;96.40;;;;;;5065192;28;20421;-74
2022/11/23 03:25:00;;;;;;;;;;;7.90;96.40;;;;;;5071808;28;20036;-74
2022/11/23 03:27:26;;;;;;;;;;;7.90;96.50;;;;;;5085659;28;19982;-74
2022/11/23 03:29:51;;;;;;;;;;;7.90;96.60;;;;;;5080584;28;19990;-74
2022/11/23 03:32:17;;;;;;;;;;;7.90;96.50;;;;;;5065452;28;19962;-74
2022/11/23 03:34:42;;;;;;;;;;;7.90;96.60;;;;;;5065458;28;19919;-74
2022/11/23 03:37:08;;;;;;;;;;;7.90;96.50;;;;;;5058678;28;19974;-74
2022/11/23 03:39:33;;;;;;;;;;;7.90;96.50;;;;;;5044543;28;19913;-75
2022/11/23 03:41:59;;;;;;;;;;;7.90;96.50;;;;;;5044759;28;20465;-74
2022/11/23 03:44:24;;;;;;;;;;;7.90;96.50;;;;;;5065377;28;19916;-73
2022/11/23 03:46:50;;;;;;;;;;;7.90;96.60;;;;;;5085470;28;19916;-73
2022/11/23 03:49:16;;;;;;;;;;;7.90;96.50;;;;;;5085388;28;19912;-73
2022/11/23 03:51:41;;;;;;;;;;;7.90;96.60;;;;;;5065820;28;19965;-74
2022/11/23 03:54:07;;;;;;;;;;;7.90;96.60;;;;;;5065219;28;19956;-73
2022/11/23 03:56:32;;;;;;;;;;;7.90;96.60;;;;;;5085056;28;20019;-73
2022/11/23 03:58:58;;;;;;;;;;;7.90;96.60;;;;;;5089408;28;19908;-74
2022/11/23 04:01:23;;;;;;;;;;;7.90;96.60;;;;;;5073077;28;19989;-74
2022/11/23 04:03:49;;;;;;;;;;;7.90;96.50;;;;;;5069246;28;20591;-73
2022/11/23 04:06:14;;;;;;;;;;;7.90;96.50;;;;;;5068177;28;19916;-73
2022/11/23 04:08:40;;;;;;;;;;;7.90;96.60;;;;;;5068788;28;19912;-74
2022/11/23 04:11:05;;;;;;;;;;;7.90;96.60;;;;;;5068947;28;20401;-74
2022/11/23 04:13:30;;;;;;;;;;;7.90;96.70;;;;;;5068855;28;19916;-73
2022/11/23 04:15:56;;;;;;;;;;;7.90;96.70;;;;;;5068995;28;20452;-74
2022/11/23 04:18:21;;;;;;;;;;;7.90;96.60;;;;;;5068442;28;19922;-74
2022/11/23 04:20:47;;;;;;;;;;;7.90;96.50;;;;;;5068930;28;19917;-74
2022/11/23 04:23:12;;;;;;;;;;;7.90;96.60;;;;;;5069346;28;19993;-74
2022/11/23 04:25:38;;;;;;;;;;;7.90;96.60;;;;;;5080626;28;19951;-73
2022/11/23 04:28:03;;;;;;;;;;;7.90;96.60;;;;;;5087628;28;19920;-74
2022/11/23 04:30:29;;;;;;;;;;;7.90;96.70;;;;;;5061443;28;20008;-74
2022/11/23 04:32:54;;;;;;;;;;;7.90;96.60;;;;;;5066608;28;19919;-73
2022/11/23 04:35:21;;;;;;;;;;;7.90;96.60;;;;;;5066077;28;20023;-73
2022/11/23 04:37:46;;;;;;;;;;;7.90;96.90;;;;;;5068901;28;19961;-73
2022/11/23 04:40:12;;;;;;;;;;;7.90;96.60;;;;;;5064416;28;19916;-73
2022/11/23 04:42:37;;;;;;;;;;;7.90;96.60;;;;;;5062045;28;20019;-74
2022/11/23 04:45:03;;;;;;;;;;;7.90;96.60;;;;;;5068021;28;19916;-73
2022/11/23 04:47:29;;;;;;;;;;;7.90;96.50;;;;;;5067074;28;19916;-73
2022/11/23 04:49:54;;;;;;;;;;;7.90;96.60;;;;;;5068059;28;20327;-73
2022/11/23 04:52:19;;;;;;;;;;;7.90;96.50;;;;;;5068297;28;19923;-74
2022/11/23 04:54:45;;;;;;;;;;;7.90;96.60;;;;;;5073136;28;20311;-73
2022/11/23 04:57:10;;;;;;;;;;;7.90;96.60;;;;;;5088546;28;19917;-73
2022/11/23 04:59:36;;;;;;;;;;;7.90;96.60;;;;;;5086136;28;20411;-74
2022/11/23 05:02:01;;;;;;;;;;;7.90;96.60;;;;;;5067792;28;19912;-74
2022/11/23 05:04:27;;;;;;;;;;;7.90;96.60;;;;;;5068253;28;19913;-74
2022/11/23 05:06:52;;;;;;;;;;;7.90;96.60;;;;;;5067989;28;20277;-73
2022/11/23 05:09:18;;;;;;;;;;;7.90;96.60;;;;;;5069084;28;19912;-73
2022/11/23 05:11:44;;;;;;;;;;;7.90;96.60;;;;;;5067871;28;19924;-73
2022/11/23 05:14:09;;;;;;;;;;;7.90;96.60;;;;;;5068322;28;19913;-73
2022/11/23 05:16:36;;;;;;;;;;;7.90;96.60;;;;;;5067613;28;20318;-73
2022/11/23 05:19:02;;;;;;;;;;;7.90;96.60;;;;;;5067974;28;20353;-74
2022/11/23 05:21:27;;;;;;;;;;;7.90;96.60;;;;;;5067594;28;19921;-73
2022/11/23 05:23:53;;;;;;;;;;;7.90;96.60;;;;;;5068729;28;19916;-73
2022/11/23 05:26:18;;;;;;;;;;;7.90;96.70;;;;;;5085132;28;20007;-73
2022/11/23 05:28:44;;;;;;;;;;;7.90;96.60;;;;;;5087657;28;19919;-73
2022/11/23 05:31:10;;;;;;;;;;;7.90;96.60;;;;;;5072605;28;19913;-74
2022/11/23 05:33:35;;;;;;;;;;;7.90;96.60;;;;;;5067900;28;19913;-73
2022/11/23 05:36:00;;;;;;;;;;;7.90;96.90;;;;;;5067339;28;20349;-74
2022/11/23 05:38:26;;;;;;;;;;;7.90;96.60;;;;;;5067680;28;19909;-73
2022/11/23 05:40:52;;;;;;;;;;;7.90;96.60;;;;;;5066915;28;20688;-74
2022/11/23 05:43:17;;;;;;;;;;;7.90;96.60;;;;;;5067330;28;19919;-73
2022/11/23 05:45:43;;;;;;;;;;;7.90;96.60;;;;;;5067229;28;20501;-73
2022/11/23 05:48:08;;;;;;;;;;;7.90;96.60;;;;;;5067626;28;19913;-74
2022/11/23 05:50:34;;;;;;;;;;;7.90;96.70;;;;;;5067111;28;19912;-73
2022/11/23 05:52:59;;;;;;;;;;;7.90;96.70;;;;;;5067153;28;20380;-73
2022/11/23 05:55:25;;;;;;;;;;;7.90;96.70;;;;;;5077378;28;19919;-73
2022/11/23 05:57:51;;;;;;;;;;;7.90;96.70;;;;;;5079664;28;19921;-73
2022/11/23 06:00:17;;;;;;;;;;;7.90;96.70;;;;;;5063029;28;19916;-74
2022/11/23 06:02:42;;;;;;;;;;;7.90;96.70;;;;;;5061171;28;19917;-74
2022/11/23 06:05:08;;;;;;;;;;;7.90;96.70;;;;;;5067144;28;20387;-73
2022/11/23 06:07:34;;;;;;;;;;;7.90;96.70;;;;;;5066876;28;20019;-74
2022/11/23 06:09:59;;;;;;;;;;;7.90;96.90;;;;;;5066801;28;19912;-73
2022/11/23 06:12:26;;;;;;;;;;;7.90;96.70;;;;;;5067744;28;19920;-73
2022/11/23 06:14:52;;;;;;;;;;;7.90;96.70;;;;;;5068301;28;19919;-73
2022/11/23 06:17:17;;;;;;;;;;;7.90;96.70;;;;;;5066842;28;19912;-73
2022/11/23 06:19:43;;;;;;;;;;;7.90;96.70;;;;;;5066083;28;20568;-73
2022/11/23 06:22:08;;;;;;;;;;;7.90;96.70;;;;;;5066735;28;20062;-74
2022/11/23 06:24:34;;;;;;;;;;;7.90;96.70;;;;;;5070099;28;19959;-74
2022/11/23 06:26:59;;;;;;;;;;;7.90;96.70;;;;;;5086625;28;19923;-73
2022/11/23 06:29:25;;;;;;;;;;;7.90;96.70;;;;;;5085980;28;19958;-74
2022/11/23 06:31:50;;;;;;;;;;;7.90;96.70;;;;;;5076204;28;20346;-74
2022/11/23 06:34:16;;;;;;;;;;;7.90;96.70;;;;;;5086828;28;19919;-74
2022/11/23 06:36:42;;;;;;;;;;;7.90;96.70;;;;;;5084224;28;19912;-73
2022/11/23 06:39:07;;;;;;;;;;;7.90;96.70;;;;;;5066247;28;19922;-74
2022/11/23 06:41:33;;;;;;;;;;;7.90;96.70;;;;;;5066153;28;19962;-73
2022/11/23 06:43:58;;;;;;;;;;;7.90;96.80;;;;;;5066052;28;19996;-73
2022/11/23 06:46:24;;;;;;;;;;;7.90;96.80;;;;;;5065957;28;20483;-73
2022/11/23 06:48:49;;;;;;;;;;;7.90;96.70;;;;;;5067350;28;19919;-73
2022/11/23 06:51:15;;;;;;;;;;;7.90;96.70;;;;;;5065725;28;20495;-73
2022/11/23 06:53:41;;;;;;;;;;;7.90;96.70;;;;;;5066222;28;19917;-74
2022/11/23 06:56:07;;;;;;;;;;;7.90;96.70;;;;;;5082169;28;19916;-73
2022/11/23 06:58:32;;;;;;;;;;;7.90;96.80;;;;;;5085662;28;19916;-74
2022/11/23 07:01:01;;;;;;;;;;;7.90;96.70;;;;;;5072688;28;19917;-74
2022/11/23 07:03:27;;;;;;;;;;;7.90;96.80;;;;;;5066185;28;19912;-73
2022/11/23 07:05:52;;;;;;;;;;;7.90;96.80;;;;;;5081462;28;20712;-73
2022/11/23 07:08:18;;;;;;;;;;;7.90;96.80;;;;;;5070025;28;19923;-73
2022/11/23 07:10:43;;;;;;;;;;;7.90;96.80;;;;;;5066093;28;20007;-73
2022/11/23 07:13:09;;;;;;;;;;;7.90;96.80;;;;;;5066391;28;20292;-73
2022/11/23 07:15:35;;;;;;;;;;;7.90;96.70;;;;;;5065589;28;20373;-73
2022/11/23 07:18:01;;;;;;;;;;;7.90;96.80;;;;;;5065312;28;19917;-74
2022/11/23 07:20:26;;;;;;;;;;;7.90;96.80;;;;;;5065243;28;19913;-73
2022/11/23 07:23:02;;;;;;;;;;;7.90;96.80;;;;;;5066868;28;19977;-74
2022/11/23 07:25:29;;;;;;;;;;;7.90;96.80;;;;;;5076256;28;20407;-73
2022/11/23 07:27:55;;;;;;;;;;;7.90;96.80;;;;;;5084663;28;19912;-73
2022/11/23 07:30:21;;;;;;;;;;;7.90;96.80;;;;;;5077149;28;19917;-73
2022/11/23 07:32:46;;;;;;;;;;;7.90;96.80;;;;;;5064675;28;19914;-73
2022/11/23 07:35:12;;;;;;;;;;;7.90;96.80;;;;;;5066305;28;20027;-73
2022/11/23 07:37:37;;;;;;;;;;;7.90;96.80;;;;;;5066549;28;19991;-74
2022/11/23 07:40:03;;;;;;;;;;;7.90;96.80;;;;;;5066260;28;20001;-74
2022/11/23 07:42:28;;;;;;;;;;;7.90;96.80;;;;;;5065547;28;20297;-73
2022/11/23 07:44:54;;;;;;;;;;;7.90;96.80;;;;;;5065157;28;20670;-73
2022/11/23 07:47:19;;;;;;;;;;;7.90;96.80;;;;;;5065409;28;19985;-73
2022/11/23 07:49:45;;;;;;;;;;;7.90;96.80;;;;;;5064937;28;19912;-73
2022/11/23 07:52:11;;;;;;;;;;;7.90;96.80;;;;;;5065816;28;20293;-73
2022/11/23 07:54:36;;;;;;;;;;;7.90;96.80;;;;;;5070131;28;19916;-73
2022/11/23 07:57:02;;;;;;;;;;;7.90;96.80;;;;;;5074000;28;20370;-74
2022/11/23 07:59:28;;;;;;;;;;;8.00;96.80;;;;;;5065495;28;19944;-73
2022/11/23 08:01:53;;;;;;;;;;;8.00;97.00;;;;;;5065399;28;19920;-73
2022/11/23 08:04:19;;;;;;;;;;;7.90;96.70;;;;;;5065221;28;19912;-73
2022/11/23 08:06:45;;;;;;;;;;;8.00;96.70;;;;;;5064366;28;20427;-73
2022/11/23 08:09:10;;;;;;;;;;;7.90;96.70;;;;;;5071937;28;19915;-73
2022/11/23 08:11:35;;;;;;;;;;;8.00;96.70;;;;;;5085345;28;19932;-73
2022/11/23 08:14:01;;;;;;;;;;;8.00;96.70;;;;;;5085416;28;19958;-73
2022/11/23 08:16:26;;;;;;;;;;;8.00;96.70;;;;;;5085487;28;19920;-73
2022/11/23 08:18:52;;;;;;;;;;;8.00;96.70;;;;;;5085185;28;19944;-73
2022/11/23 08:21:17;;;;;;;;;;;8.00;96.60;;;;;;5068090;28;19913;-74
2022/11/23 08:23:43;;;;;;;;;;;8.00;96.70;;;;;;5064966;28;19912;-73
2022/11/23 08:26:08;;;;;;;;;;;8.00;96.60;;;;;;5080290;28;19940;-73
2022/11/23 08:28:34;;;;;;;;;;;8.00;96.60;;;;;;5083864;28;20014;-73
2022/11/23 08:31:04;;;;;;;;;;;8.10;96.60;;;;;;5071077;28;19954;-73
2022/11/23 08:33:29;;;;;;;;;;;8.10;96.60;;;;;;5065003;28;19912;-73
2022/11/23 08:35:55;;;;;;;;;;;8.10;96.60;;;;;;5065148;28;19965;-73
2022/11/23 08:38:20;;;;;;;;;;;8.10;96.60;;;;;;5049025;28;20373;-73
2022/11/23 08:40:46;;;;;;;;;;;8.10;96.60;;;;;;5044843;28;19913;-73
2022/11/23 08:43:11;;;;;;;;;;;8.10;96.60;;;;;;5074647;28;20281;-73
2022/11/23 08:45:37;;;;;;;;;;;8.10;96.50;;;;;;5068270;28;19923;-73
2022/11/23 08:48:03;;;;;;;;;;;8.10;96.50;;;;;;5068120;28;19919;-73
2022/11/23 08:50:29;;;;;;;;;;;8.10;96.50;;;;;;5067493;28;20303;-73
2022/11/23 08:52:55;;;;;;;;;;;8.10;96.50;;;;;;5067430;28;19913;-73
2022/11/23 08:55:21;;;;;;;;;;;8.20;96.60;;;;;;5077061;28;20399;-73
2022/11/23 08:57:46;;;;;;;;;;;8.20;96.60;;;;;;5088491;28;19913;-74
2022/11/23 09:00:12;;;;;;;;;;;8.10;96.60;;;;;;5080668;28;19924;-73
2022/11/23 09:02:37;;;;;;;;;;;8.20;96.60;;;;;;5068153;28;19916;-73
2022/11/23 09:05:05;;;;;;;;;;;8.20;96.60;;;;;;5067805;28;20272;-73
2022/11/23 09:07:31;;;;;;;;;;;8.20;96.60;;;;;;5058693;28;19924;-73
2022/11/23 09:09:56;;;;;;;;;;;8.20;96.60;;;;;;5047900;28;19908;-74
2022/11/23 09:12:22;;;;;;;;;;;8.20;96.60;;;;;;5048181;28;19924;-74
2022/11/23 09:14:47;;;;;;;;;;;8.10;96.60;;;;;;5059730;28;19923;-74
2022/11/23 09:17:13;;;;;;;;;;;8.20;96.60;;;;;;5088452;28;19982;-73
2022/11/23 09:19:38;;;;;;;;;;;8.10;96.60;;;;;;5085524;28;19913;-74
2022/11/23 09:22:04;;;;;;;;;;;8.20;96.70;;;;;;5068206;28;19912;-73
2022/11/23 09:24:29;;;;;;;;;;;8.10;96.60;;;;;;5070608;28;19994;-74
2022/11/23 09:26:55;;;;;;;;;;;8.20;96.70;;;;;;5088512;28;19923;-73
2022/11/23 09:29:20;;;;;;;;;;;8.10;96.60;;;;;;5088012;28;20339;-73
2022/11/23 09:31:46;;;;;;;;;;;8.20;96.60;;;;;;5067533;28;19999;-73
2022/11/23 09:34:12;;;;;;;;;;;8.20;96.60;;;;;;5067696;28;19913;-74
2022/11/23 09:36:38;;;;;;;;;;;8.20;96.60;;;;;;5063991;28;19913;-73
2022/11/23 09:39:04;;;;;;;;;;;8.20;96.70;;;;;;5047462;28;20336;-74
2022/11/23 09:41:48;;;;;;;;;;;8.20;96.60;;;;;;5060665;28;19947;-74
2022/11/23 09:44:33;;;;;;;;;;;8.20;96.60;;;;;;5067130;28;20284;-73
2022/11/23 09:47:05;;;;;;;;;;;8.20;96.60;;;;;;5067488;28;19916;-74
2022/11/23 09:49:36;;;;;;;;;;;8.20;96.50;;;;;;5081137;28;20808;-73
2022/11/23 09:52:02;;;;;;;;;;;8.20;96.50;;;;;;5067394;28;19916;-74
2022/11/23 09:54:32;;;;;;;;;;;8.20;96.50;;;;;;5068751;28;20353;-74
2022/11/23 09:56:58;;;;;;;;;;;8.20;96.50;;;;;;5087870;28;19958;-74
2022/11/23 09:59:23;;;;;;;;;;;8.20;96.50;;;;;;5086535;28;19966;-73
2022/11/23 10:01:49;;;;;;;;;;;8.20;96.50;;;;;;5067462;28;20007;-74
2022/11/23 10:04:18;;;;;;;;;;;8.20;96.50;;;;;;5067115;28;20028;-74
2022/11/23 10:06:44;;;;;;;;;;;8.20;96.50;;;;;;5065737;28;19924;-74
2022/11/23 10:09:16;;;;;;;;;;;8.20;96.50;;;;;;5067134;28;20696;-74
2022/11/23 10:12:00;;;;;;;;;;;8.20;96.40;;;;;;5066616;28;19924;-74
2022/11/23 10:14:55;;;;;;;;;;;8.20;96.50;;;;;;5067110;28;19943;-73
2022/11/23 10:17:38;;;;;;;;;;;8.20;96.40;;;;;;5070662;28;19916;-73
2022/11/23 10:20:19;;;;;;;;;;;8.20;96.40;;;;;;5066327;28;19999;-73
2022/11/23 10:22:54;;;;;;;;;;;8.30;96.40;;;;;;5068229;28;19917;-74
2022/11/23 10:25:20;;;;;;;;;;;8.30;96.40;;;;;;5076391;28;19919;-74
2022/11/23 10:27:47;;;;;;;;;;;8.30;96.40;;;;;;5087184;28;20026;-73
2022/11/23 10:30:13;;;;;;;;;;;8.30;96.30;;;;;;5078264;28;20011;-74
2022/11/23 10:32:44;;;;;;;;;;;8.30;96.40;;;;;;5066874;28;19920;-73
2022/11/23 10:35:28;;;;;;;;;;;8.30;96.30;;;;;;5066702;28;19912;-74
2022/11/23 10:38:20;;;;;;;;;;;8.30;96.30;;;;;;5067858;28;20324;-74
2022/11/23 10:40:55;;;;;;;;;;;8.30;96.30;;;;;;5066292;28;19927;-73
2022/11/23 10:43:23;;;;;;;;;;;8.30;96.20;;;;;;5066155;28;19959;-73
2022/11/23 10:45:48;;;;;;;;;;;8.30;96.30;;;;;;5066095;28;19912;-73
2022/11/23 10:48:32;;;;;;;;;;;8.30;96.20;;;;;;5066234;28;19935;-73
2022/11/23 10:51:14;;;;;;;;;;;8.40;96.20;;;;;;5065917;28;19912;-73
2022/11/23 10:53:40;;;;;;;;;;;8.40;96.20;;;;;;5066059;28;19920;-73
2022/11/23 10:56:10;;;;;;;;;;;8.40;96.10;;;;;;5082201;28;19912;-73
2022/11/23 10:58:43;;;;;;;;;;;8.40;96.20;;;;;;5086710;28;19916;-74
2022/11/23 11:01:13;;;;;;;;;;;8.40;96.10;;;;;;5070687;28;19920;-74
2022/11/23 11:03:39;;;;;;;;;;;8.40;96.10;;;;;;5066187;28;19908;-74
2022/11/23 11:06:05;;;;;;;;;;;8.40;96.10;;;;;;5066047;28;19978;-73
2022/11/23 11:08:32;;;;;;;;;;;8.40;96.00;;;;;;5048380;28;20618;-74
2022/11/23 11:11:06;;;;;;;;;;;8.40;96.00;;;;;;5049211;28;19920;-74
2022/11/23 11:13:40;;;;;;;;;;;8.50;96.00;;;;;;5066008;28;19920;-74
2022/11/23 11:16:26;;;;;;;;;;;8.50;95.90;;;;;;5064254;28;19913;-74
2022/11/23 11:18:52;;;;;;;;;;;8.50;95.90;;;;;;5065658;28;19916;-74
2022/11/23 11:21:20;;;;;;;;;;;8.50;95.90;;;;;;5063792;28;19912;-74
2022/11/23 11:23:51;;;;;;;;;;;8.50;95.90;;;;;;5065720;28;19916;-74
2022/11/23 11:26:21;;;;;;;;;;;8.50;95.80;;;;;;5082864;28;19919;-74
2022/11/23 11:28:58;;;;;;;;;;;8.50;95.80;;;;;;5071610;28;20475;-74
2022/11/23 11:31:23;;;;;;;;;;;8.50;95.90;;;;;;5065597;28;19916;-74
2022/11/23 11:34:07;;;;;;;;;;;8.50;95.80;;;;;;5065645;28;20383;-74
2022/11/23 11:36:36;;;;;;;;;;;8.50;95.70;;;;;;5065772;28;20524;-74
2022/11/23 11:39:05;;;;;;;;;;;8.60;95.70;;;;;;5065935;28;19916;-74
2022/11/23 11:41:31;;;;;;;;;;;8.50;95.70;;;;;;5065505;28;20412;-74
2022/11/23 11:43:58;;;;;;;;;;;8.60;95.70;;;;;;5066524;28;19948;-74
2022/11/23 11:46:34;;;;;;;;;;;8.60;95.70;;;;;;5063869;28;20242;-74
2022/11/23 11:49:20;;;;;;;;;;;8.60;95.60;;;;;;5064863;28;19912;-74
2022/11/23 11:51:45;;;;;;;;;;;8.60;95.70;;;;;;5045121;28;19920;-74
2022/11/23 11:54:21;;;;;;;;;;;8.60;95.70;;;;;;5045277;28;19913;-74
2022/11/23 11:56:51;;;;;;;;;;;8.60;95.60;;;;;;5045345;28;20523;-74
2022/11/23 11:59:41;;;;;;;;;;;8.60;95.60;;;;;;5045115;28;19913;-74
2022/11/23 12:02:21;;;;;;;;;;;8.60;95.70;;;;;;5058769;28;19913;-74
2022/11/23 12:04:52;;;;;;;;;;;8.60;95.70;;;;;;5060287;28;19924;-74
2022/11/23 12:07:23;;;;;;;;;;;8.60;95.70;;;;;;5065111;28;19920;-74
2022/11/23 12:09:50;;;;;;;;;;;8.60;95.70;;;;;;5065132;28;19913;-74
2022/11/23 12:12:19;;;;;;;;;;;8.60;95.70;;;;;;5065209;28;19920;-74
2022/11/23 12:14:45;;;;;;;;;;;8.60;95.60;;;;;;5065516;28;19920;-74
2022/11/23 12:17:29;;;;;;;;;;;8.60;95.70;;;;;;5065304;28;19924;-74
2022/11/23 12:20:07;;;;;;;;;;;8.60;95.70;;;;;;5087618;28;19916;-74
2022/11/23 12:22:46;;;;;;;;;;;8.60;95.70;;;;;;5087772;28;19912;-74
2022/11/23 12:25:19;;;;;;;;;;;8.70;95.70;;;;;;5088709;28;19925;-74
2022/11/23 12:27:47;;;;;;;;;;;8.70;95.60;;;;;;5088954;28;19916;-74
2022/11/23 12:30:28;;;;;;;;;;;8.70;95.70;;;;;;5080379;28;20280;-74
2022/11/23 12:32:56;;;;;;;;;;;8.70;95.60;;;;;;5068648;28;19997;-74
2022/11/23 12:35:40;;;;;;;;;;;8.70;95.60;;;;;;5069835;28;19924;-74
2022/11/23 12:38:06;;;;;;;;;;;8.80;95.60;;;;;;5068368;28;20373;-74
2022/11/23 12:40:52;;;;;;;;;;;8.80;95.40;;;;;;5068052;28;19916;-73
2022/11/23 12:43:17;;;;;;;;;;;8.80;95.50;;;;;;5068563;28;19912;-74
2022/11/23 12:45:52;;;;;;;;;;;8.80;95.50;;;;;;5068532;28;20368;-74
2022/11/23 12:48:23;;;;;;;;;;;8.80;95.50;;;;;;5067902;28;19919;-74
2022/11/23 12:51:04;;;;;;;;;;;8.80;95.50;;;;;;5077165;28;19946;-74
2022/11/23 12:53:51;;;;;;;;;;;8.80;95.50;;;;;;5068494;28;19919;-74
2022/11/23 12:56:17;;;;;;;;;;;8.90;95.60;;;;;;5085656;28;19919;-74
2022/11/23 12:58:43;;;;;;;;;;;8.90;95.60;;;;;;5087005;28;20296;-75
2022/11/23 13:01:12;;;;;;;;;;;8.80;95.50;;;;;;5068273;28;19916;-74
2022/11/23 13:03:43;;;;;;;;;;;8.90;95.50;;;;;;5082694;28;20646;-74
2022/11/23 13:06:11;;;;;;;;;;;8.90;95.60;;;;;;5088084;28;20556;-74
2022/11/23 13:08:56;;;;;;;;;;;8.90;95.40;;;;;;5069464;28;19920;-74
2022/11/23 13:11:40;;;;;;;;;;;8.90;95.40;;;;;;5066017;28;20391;-74
2022/11/23 13:14:17;;;;;;;;;;;8.90;95.40;;;;;;5068259;28;19916;-75
2022/11/23 13:16:53;;;;;;;;;;;8.90;95.50;;;;;;5068156;28;20383;-74
2022/11/23 13:19:39;;;;;;;;;;;8.90;95.80;;;;;;5066196;28;19955;-74
2022/11/23 13:22:07;;;;;;;;;;;8.90;95.50;;;;;;5081155;28;20355;-74
2022/11/23 13:24:34;;;;;;;;;;;8.90;95.50;;;;;;5067787;28;19923;-73
2022/11/23 13:27:11;;;;;;;;;;;8.80;95.50;;;;;;5066034;28;20018;-74
2022/11/23 13:29:49;;;;;;;;;;;8.80;95.50;;;;;;5063146;28;19969;-74
2022/11/23 13:32:33;;;;;;;;;;;8.80;95.50;;;;;;5066765;28;20289;-74
2022/11/23 13:34:58;;;;;;;;;;;8.80;95.60;;;;;;5085214;28;19916;-74
2022/11/23 13:37:24;;;;;;;;;;;8.80;95.60;;;;;;5078243;28;19913;-74
2022/11/23 13:39:49;;;;;;;;;;;8.80;95.60;;;;;;5066523;28;19927;-74
2022/11/23 13:42:15;;;;;;;;;;;8.80;95.60;;;;;;5064614;28;19912;-74
2022/11/23 13:44:41;;;;;;;;;;;8.80;95.60;;;;;;5065825;28;20003;-74
2022/11/23 13:47:09;;;;;;;;;;;8.80;95.80;;;;;;5066731;28;20579;-74
2022/11/23 13:49:41;;;;;;;;;;;8.80;95.60;;;;;;5068544;28;20007;-74
2022/11/23 13:52:16;;;;;;;;;;;8.80;95.70;;;;;;5067875;28;19920;-74
2022/11/23 13:54:51;;;;;;;;;;;8.80;95.60;;;;;;5070362;28;19927;-74
2022/11/23 13:57:17;;;;;;;;;;;8.70;95.70;;;;;;5085273;28;19912;-73
2022/11/23 13:59:43;;;;;;;;;;;8.70;95.80;;;;;;5080472;28;20377;-74
2022/11/23 14:02:09;;;;;;;;;;;8.70;95.80;;;;;;5065874;28;19923;-73
2022/11/23 14:04:37;;;;;;;;;;;8.70;95.70;;;;;;5066628;28;20043;-74
2022/11/23 14:07:21;;;;;;;;;;;8.70;95.80;;;;;;5060657;28;19921;-73
2022/11/23 14:10:02;;;;;;;;;;;8.70;95.80;;;;;;5065642;28;19916;-74
2022/11/23 14:12:36;;;;;;;;;;;8.70;95.80;;;;;;5065753;28;20018;-73
2022/11/23 14:15:14;;;;;;;;;;;8.70;95.80;;;;;;5064648;28;20381;-74
2022/11/23 14:17:47;;;;;;;;;;;8.70;95.80;;;;;;5065615;28;19999;-74
2022/11/23 14:20:21;;;;;;;;;;;8.70;95.80;;;;;;5062475;28;19921;-74
2022/11/23 14:22:47;;;;;;;;;;;8.60;95.70;;;;;;5065596;28;19918;-74
2022/11/23 14:25:25;;;;;;;;;;;8.60;95.80;;;;;;5081204;28;19916;-74
2022/11/23 14:27:58;;;;;;;;;;;8.60;95.80;;;;;;5066056;28;19976;-74
2022/11/23 14:30:31;;;;;;;;;;;8.60;95.80;;;;;;5065479;28;19921;-74
2022/11/23 14:33:15;;;;;;;;;;;8.60;95.90;;;;;;5065936;28;19912;-74
2022/11/23 14:35:46;;;;;;;;;;;8.60;95.80;;;;;;5065671;28;19920;-74
2022/11/23 14:38:26;;;;;;;;;;;8.60;95.90;;;;;;5050478;28;19916;-74